Аэропорт: Чебоксары. Чебоксары

ICAO: UWKS

METAR:
Информация по данной станции не доступна
METAR:
2020-05-31 23:00:00
TAF UWKS 312300Z 0100/0109 02003G08MPS 5000 -RA OVC004 TX10/0109Z TN07/0100Z TEMPO 0100/0108 2100 -SHRA BKN006 BKN011CB